sensor_id;sensor_type;location;lat;lon;timestamp;P1;durP1;ratioP1;P2;durP2;ratioP2
51714;SDS011;39115;59.332;18.034;2023-09-12T00:00:06;3.10;;;2.83;;
51714;SDS011;39115;59.332;18.034;2023-09-12T00:02:27;2.45;;;2.25;;
51714;SDS011;39115;59.332;18.034;2023-09-12T00:04:49;2.80;;;2.60;;
51714;SDS011;39115;59.332;18.034;2023-09-12T00:07:10;3.00;;;2.80;;
51714;SDS011;39115;59.332;18.034;2023-09-12T00:09:31;2.95;;;2.75;;
51714;SDS011;39115;59.332;18.034;2023-09-12T00:11:51;3.00;;;2.78;;
51714;SDS011;39115;59.332;18.034;2023-09-12T00:14:15;2.78;;;2.58;;
51714;SDS011;39115;59.332;18.034;2023-09-12T00:16:37;2.30;;;2.20;;
51714;SDS011;39115;59.332;18.034;2023-09-12T00:18:58;3.20;;;2.90;;
51714;SDS011;39115;59.332;18.034;2023-09-12T00:21:18;2.85;;;2.55;;
51714;SDS011;39115;59.332;18.034;2023-09-12T00:23:39;2.80;;;2.60;;
51714;SDS011;39115;59.332;18.034;2023-09-12T00:25:59;2.35;;;2.25;;
51714;SDS011;39115;59.332;18.034;2023-09-12T00:28:20;2.60;;;2.45;;
51714;SDS011;39115;59.332;18.034;2023-09-12T00:30:41;2.53;;;2.38;;
51714;SDS011;39115;59.332;18.034;2023-09-12T00:33:01;2.60;;;2.40;;
51714;SDS011;39115;59.332;18.034;2023-09-12T00:35:22;3.00;;;2.80;;
51714;SDS011;39115;59.332;18.034;2023-09-12T00:37:43;3.20;;;2.90;;
51714;SDS011;39115;59.332;18.034;2023-09-12T00:40:03;2.42;;;2.22;;
51714;SDS011;39115;59.332;18.034;2023-09-12T00:42:25;2.80;;;2.60;;
51714;SDS011;39115;59.332;18.034;2023-09-12T00:44:46;2.58;;;2.38;;
51714;SDS011;39115;59.332;18.034;2023-09-12T00:47:07;2.88;;;2.60;;
51714;SDS011;39115;59.332;18.034;2023-09-12T00:49:30;2.60;;;2.40;;
51714;SDS011;39115;59.332;18.034;2023-09-12T00:51:51;2.70;;;2.50;;
51714;SDS011;39115;59.332;18.034;2023-09-12T00:54:13;2.50;;;2.30;;
51714;SDS011;39115;59.332;18.034;2023-09-12T00:56:34;2.75;;;2.55;;
51714;SDS011;39115;59.332;18.034;2023-09-12T00:58:55;3.00;;;2.70;;
51714;SDS011;39115;59.332;18.034;2023-09-12T01:01:17;2.55;;;2.35;;
51714;SDS011;39115;59.332;18.034;2023-09-12T01:03:39;2.60;;;2.40;;
51714;SDS011;39115;59.332;18.034;2023-09-12T01:05:59;2.88;;;2.67;;
51714;SDS011;39115;59.332;18.034;2023-09-12T01:08:20;2.72;;;2.53;;
51714;SDS011;39115;59.332;18.034;2023-09-12T01:10:41;3.40;;;2.53;;
51714;SDS011;39115;59.332;18.034;2023-09-12T01:15:26;2.53;;;2.33;;
51714;SDS011;39115;59.332;18.034;2023-09-12T01:17:47;2.53;;;2.20;;
51714;SDS011;39115;59.332;18.034;2023-09-12T01:20:08;2.40;;;2.20;;
51714;SDS011;39115;59.332;18.034;2023-09-12T01:26:09;2.58;;;2.38;;
51714;SDS011;39115;59.332;18.034;2023-09-12T01:28:12;2.40;;;2.20;;
51714;SDS011;39115;59.332;18.034;2023-09-12T01:30:36;2.55;;;2.38;;
51714;SDS011;39115;59.332;18.034;2023-09-12T01:32:59;3.45;;;2.47;;
51714;SDS011;39115;59.332;18.034;2023-09-12T01:35:20;2.95;;;2.75;;
51714;SDS011;39115;59.332;18.034;2023-09-12T01:37:41;2.20;;;2.10;;
51714;SDS011;39115;59.332;18.034;2023-09-12T01:40:02;2.60;;;2.20;;
51714;SDS011;39115;59.332;18.034;2023-09-12T01:42:23;2.55;;;2.45;;
51714;SDS011;39115;59.332;18.034;2023-09-12T01:44:53;2.25;;;2.05;;
51714;SDS011;39115;59.332;18.034;2023-09-12T01:47:15;2.30;;;2.20;;
51714;SDS011;39115;59.332;18.034;2023-09-12T01:49:41;2.70;;;2.50;;
51714;SDS011;39115;59.332;18.034;2023-09-12T01:52:06;2.22;;;2.13;;
51714;SDS011;39115;59.332;18.034;2023-09-12T01:54:27;2.30;;;2.20;;
51714;SDS011;39115;59.332;18.034;2023-09-12T01:56:48;2.22;;;2.13;;
51714;SDS011;39115;59.332;18.034;2023-09-12T01:59:10;2.22;;;2.03;;
51714;SDS011;39115;59.332;18.034;2023-09-12T02:01:31;2.10;;;1.90;;
51714;SDS011;39115;59.332;18.034;2023-09-12T02:03:51;2.10;;;1.95;;
51714;SDS011;39115;59.332;18.034;2023-09-12T02:06:12;1.95;;;1.85;;
51714;SDS011;39115;59.332;18.034;2023-09-12T02:08:32;2.20;;;2.05;;
51714;SDS011;39115;59.332;18.034;2023-09-12T02:10:53;2.22;;;2.10;;
51714;SDS011;39115;59.332;18.034;2023-09-12T02:13:14;2.00;;;1.90;;
51714;SDS011;39115;59.332;18.034;2023-09-12T02:15:35;2.10;;;2.00;;
51714;SDS011;39115;59.332;18.034;2023-09-12T02:17:55;2.05;;;1.90;;
51714;SDS011;39115;59.332;18.034;2023-09-12T02:20:16;2.20;;;2.10;;
51714;SDS011;39115;59.332;18.034;2023-09-12T02:22:37;2.50;;;2.30;;
51714;SDS011;39115;59.332;18.034;2023-09-12T02:24:57;2.33;;;2.22;;
51714;SDS011;39115;59.332;18.034;2023-09-12T02:27:18;2.08;;;1.85;;
51714;SDS011;39115;59.332;18.034;2023-09-12T02:29:39;1.98;;;1.88;;
51714;SDS011;39115;59.332;18.034;2023-09-12T02:32:01;1.95;;;1.85;;
51714;SDS011;39115;59.332;18.034;2023-09-12T02:34:22;2.50;;;2.40;;
51714;SDS011;39115;59.332;18.034;2023-09-12T02:36:43;2.03;;;1.85;;
51714;SDS011;39115;59.332;18.034;2023-09-12T02:39:04;2.42;;;2.22;;
51714;SDS011;39115;59.332;18.034;2023-09-12T02:41:24;2.05;;;1.95;;
51714;SDS011;39115;59.332;18.034;2023-09-12T02:43:45;2.15;;;2.05;;
51714;SDS011;39115;59.332;18.034;2023-09-12T02:46:05;2.15;;;2.05;;
51714;SDS011;39115;59.332;18.034;2023-09-12T02:48:26;2.30;;;2.10;;
51714;SDS011;39115;59.332;18.034;2023-09-12T02:50:47;1.75;;;1.65;;
51714;SDS011;39115;59.332;18.034;2023-09-12T02:53:07;2.00;;;1.90;;
51714;SDS011;39115;59.332;18.034;2023-09-12T02:55:27;2.22;;;2.03;;
51714;SDS011;39115;59.332;18.034;2023-09-12T02:57:48;2.00;;;1.80;;
51714;SDS011;39115;59.332;18.034;2023-09-12T03:00:09;2.00;;;1.85;;
51714;SDS011;39115;59.332;18.034;2023-09-12T03:02:31;2.28;;;2.05;;
51714;SDS011;39115;59.332;18.034;2023-09-12T03:04:51;1.92;;;1.83;;
51714;SDS011;39115;59.332;18.034;2023-09-12T03:07:12;1.73;;;1.63;;
51714;SDS011;39115;59.332;18.034;2023-09-12T03:09:33;2.28;;;2.17;;
51714;SDS011;39115;59.332;18.034;2023-09-12T03:11:53;1.70;;;1.60;;
51714;SDS011;39115;59.332;18.034;2023-09-12T03:14:14;1.80;;;1.70;;
51714;SDS011;39115;59.332;18.034;2023-09-12T03:16:34;1.90;;;1.80;;
51714;SDS011;39115;59.332;18.034;2023-09-12T03:18:56;1.75;;;1.65;;
51714;SDS011;39115;59.332;18.034;2023-09-12T03:21:18;2.05;;;1.95;;
51714;SDS011;39115;59.332;18.034;2023-09-12T03:23:38;1.95;;;1.85;;
51714;SDS011;39115;59.332;18.034;2023-09-12T03:26:02;1.80;;;1.70;;
51714;SDS011;39115;59.332;18.034;2023-09-12T03:30:44;1.63;;;1.52;;
51714;SDS011;39115;59.332;18.034;2023-09-12T03:33:05;2.05;;;1.92;;
51714;SDS011;39115;59.332;18.034;2023-09-12T03:35:26;1.60;;;1.50;;
51714;SDS011;39115;59.332;18.034;2023-09-12T03:37:48;2.03;;;1.92;;
51714;SDS011;39115;59.332;18.034;2023-09-12T03:40:09;2.13;;;2.03;;
51714;SDS011;39115;59.332;18.034;2023-09-12T03:42:30;1.55;;;1.45;;
51714;SDS011;39115;59.332;18.034;2023-09-12T03:44:51;1.60;;;1.50;;
51714;SDS011;39115;59.332;18.034;2023-09-12T03:47:12;1.42;;;1.33;;
51714;SDS011;39115;59.332;18.034;2023-09-12T03:49:32;1.67;;;1.58;;
51714;SDS011;39115;59.332;18.034;2023-09-12T03:51:53;1.58;;;1.48;;
51714;SDS011;39115;59.332;18.034;2023-09-12T03:54:13;2.30;;;1.98;;
51714;SDS011;39115;59.332;18.034;2023-09-12T03:56:34;1.77;;;1.67;;
51714;SDS011;39115;59.332;18.034;2023-09-12T03:58:54;1.60;;;1.50;;
51714;SDS011;39115;59.332;18.034;2023-09-12T04:01:18;1.63;;;1.52;;
51714;SDS011;39115;59.332;18.034;2023-09-12T04:03:38;1.65;;;1.55;;
51714;SDS011;39115;59.332;18.034;2023-09-12T04:05:59;1.80;;;1.70;;
51714;SDS011;39115;59.332;18.034;2023-09-12T04:08:19;1.70;;;1.60;;
51714;SDS011;39115;59.332;18.034;2023-09-12T04:10:40;1.63;;;1.52;;
51714;SDS011;39115;59.332;18.034;2023-09-12T04:13:01;1.75;;;1.65;;
51714;SDS011;39115;59.332;18.034;2023-09-12T04:15:22;1.90;;;1.80;;
51714;SDS011;39115;59.332;18.034;2023-09-12T04:17:42;1.58;;;1.48;;
51714;SDS011;39115;59.332;18.034;2023-09-12T04:20:03;1.40;;;1.30;;
51714;SDS011;39115;59.332;18.034;2023-09-12T04:22:26;1.77;;;1.67;;
51714;SDS011;39115;59.332;18.034;2023-09-12T04:24:48;1.70;;;1.60;;
51714;SDS011;39115;59.332;18.034;2023-09-12T04:27:09;1.60;;;1.50;;
51714;SDS011;39115;59.332;18.034;2023-09-12T04:29:31;1.73;;;1.63;;
51714;SDS011;39115;59.332;18.034;2023-09-12T04:31:53;1.80;;;1.70;;
51714;SDS011;39115;59.332;18.034;2023-09-12T04:34:19;1.38;;;1.27;;
51714;SDS011;39115;59.332;18.034;2023-09-12T04:36:40;1.80;;;1.70;;
51714;SDS011;39115;59.332;18.034;2023-09-12T04:39:00;1.60;;;1.50;;
51714;SDS011;39115;59.332;18.034;2023-09-12T04:41:21;1.80;;;1.70;;
51714;SDS011;39115;59.332;18.034;2023-09-12T04:43:42;1.55;;;1.45;;
51714;SDS011;39115;59.332;18.034;2023-09-12T04:46:05;1.70;;;1.60;;
51714;SDS011;39115;59.332;18.034;2023-09-12T04:48:26;1.55;;;1.45;;
51714;SDS011;39115;59.332;18.034;2023-09-12T04:50:46;1.90;;;1.80;;
51714;SDS011;39115;59.332;18.034;2023-09-12T04:53:07;2.00;;;1.90;;
51714;SDS011;39115;59.332;18.034;2023-09-12T04:55:27;1.40;;;1.30;;
51714;SDS011;39115;59.332;18.034;2023-09-12T04:57:49;2.03;;;1.92;;
51714;SDS011;39115;59.332;18.034;2023-09-12T05:00:09;1.88;;;1.77;;
51714;SDS011;39115;59.332;18.034;2023-09-12T05:02:31;1.55;;;1.45;;
51714;SDS011;39115;59.332;18.034;2023-09-12T05:04:51;1.50;;;1.40;;
51714;SDS011;39115;59.332;18.034;2023-09-12T05:07:12;1.70;;;1.60;;
51714;SDS011;39115;59.332;18.034;2023-09-12T05:09:33;1.35;;;1.25;;
51714;SDS011;39115;59.332;18.034;2023-09-12T05:11:53;1.50;;;1.40;;
51714;SDS011;39115;59.332;18.034;2023-09-12T05:14:14;1.33;;;1.23;;
51714;SDS011;39115;59.332;18.034;2023-09-12T05:16:34;1.52;;;1.42;;
51714;SDS011;39115;59.332;18.034;2023-09-12T05:18:55;1.45;;;1.35;;
51714;SDS011;39115;59.332;18.034;2023-09-12T05:21:15;1.80;;;1.70;;
51714;SDS011;39115;59.332;18.034;2023-09-12T05:23:36;1.52;;;1.40;;
51714;SDS011;39115;59.332;18.034;2023-09-12T05:25:56;1.70;;;1.60;;
51714;SDS011;39115;59.332;18.034;2023-09-12T05:28:18;1.65;;;1.55;;
51714;SDS011;39115;59.332;18.034;2023-09-12T05:30:38;1.48;;;1.38;;
51714;SDS011;39115;59.332;18.034;2023-09-12T05:32:59;1.58;;;1.48;;
51714;SDS011;39115;59.332;18.034;2023-09-12T05:35:20;1.17;;;1.10;;
51714;SDS011;39115;59.332;18.034;2023-09-12T05:37:40;1.40;;;1.30;;
51714;SDS011;39115;59.332;18.034;2023-09-12T05:40:01;1.63;;;1.52;;
51714;SDS011;39115;59.332;18.034;2023-09-12T05:42:23;1.85;;;1.75;;
51714;SDS011;39115;59.332;18.034;2023-09-12T05:44:43;1.33;;;1.23;;
51714;SDS011;39115;59.332;18.034;2023-09-12T05:47:04;1.40;;;1.30;;
51714;SDS011;39115;59.332;18.034;2023-09-12T05:49:26;1.08;;;1.08;;
51714;SDS011;39115;59.332;18.034;2023-09-12T05:51:47;1.38;;;1.27;;
51714;SDS011;39115;59.332;18.034;2023-09-12T05:54:07;1.63;;;1.52;;
51714;SDS011;39115;59.332;18.034;2023-09-12T05:56:30;1.45;;;1.35;;
51714;SDS011;39115;59.332;18.034;2023-09-12T05:58:50;1.33;;;1.23;;
51714;SDS011;39115;59.332;18.034;2023-09-12T06:01:11;1.85;;;1.50;;
51714;SDS011;39115;59.332;18.034;2023-09-12T06:03:31;1.50;;;1.40;;
51714;SDS011;39115;59.332;18.034;2023-09-12T06:05:52;1.00;;;1.00;;
51714;SDS011;39115;59.332;18.034;2023-09-12T06:08:12;1.30;;;1.20;;
51714;SDS011;39115;59.332;18.034;2023-09-12T06:10:33;1.30;;;1.20;;
51714;SDS011;39115;59.332;18.034;2023-09-12T06:12:54;1.33;;;1.23;;
51714;SDS011;39115;59.332;18.034;2023-09-12T06:15:14;1.55;;;1.45;;
51714;SDS011;39115;59.332;18.034;2023-09-12T06:17:35;1.35;;;1.25;;
51714;SDS011;39115;59.332;18.034;2023-09-12T06:19:56;1.10;;;1.00;;
51714;SDS011;39115;59.332;18.034;2023-09-12T06:22:16;1.40;;;1.30;;
51714;SDS011;39115;59.332;18.034;2023-09-12T06:24:37;1.50;;;1.40;;
51714;SDS011;39115;59.332;18.034;2023-09-12T06:26:59;1.35;;;1.25;;
51714;SDS011;39115;59.332;18.034;2023-09-12T06:29:20;1.30;;;1.20;;
51714;SDS011;39115;59.332;18.034;2023-09-12T06:31:40;1.58;;;1.48;;
51714;SDS011;39115;59.332;18.034;2023-09-12T06:34:02;1.30;;;1.20;;
51714;SDS011;39115;59.332;18.034;2023-09-12T06:36:24;1.38;;;1.27;;
51714;SDS011;39115;59.332;18.034;2023-09-12T06:38:45;1.67;;;1.33;;
51714;SDS011;39115;59.332;18.034;2023-09-12T06:41:05;1.20;;;1.10;;
51714;SDS011;39115;59.332;18.034;2023-09-12T06:43:26;1.52;;;1.42;;
51714;SDS011;39115;59.332;18.034;2023-09-12T06:45:47;2.50;;;0.98;;
51714;SDS011;39115;59.332;18.034;2023-09-12T06:48:08;1.38;;;1.27;;
51714;SDS011;39115;59.332;18.034;2023-09-12T06:50:28;1.27;;;1.17;;
51714;SDS011;39115;59.332;18.034;2023-09-12T06:52:49;1.10;;;1.00;;
51714;SDS011;39115;59.332;18.034;2023-09-12T06:55:10;1.20;;;1.10;;
51714;SDS011;39115;59.332;18.034;2023-09-12T06:57:30;1.15;;;1.10;;
51714;SDS011;39115;59.332;18.034;2023-09-12T06:59:51;1.10;;;1.00;;
51714;SDS011;39115;59.332;18.034;2023-09-12T07:02:11;1.50;;;1.40;;
51714;SDS011;39115;59.332;18.034;2023-09-12T07:04:33;1.40;;;1.13;;
51714;SDS011;39115;59.332;18.034;2023-09-12T07:06:53;1.42;;;1.33;;
51714;SDS011;39115;59.332;18.034;2023-09-12T07:09:14;1.15;;;1.10;;
51714;SDS011;39115;59.332;18.034;2023-09-12T07:11:34;1.40;;;1.30;;
51714;SDS011;39115;59.332;18.034;2023-09-12T07:13:55;1.45;;;1.35;;
51714;SDS011;39115;59.332;18.034;2023-09-12T07:16:15;1.30;;;1.20;;
51714;SDS011;39115;59.332;18.034;2023-09-12T07:18:36;1.40;;;1.30;;
51714;SDS011;39115;59.332;18.034;2023-09-12T07:21:00;1.10;;;1.00;;
51714;SDS011;39115;59.332;18.034;2023-09-12T07:23:22;1.17;;;1.08;;
51714;SDS011;39115;59.332;18.034;2023-09-12T07:25:43;1.50;;;1.40;;
51714;SDS011;39115;59.332;18.034;2023-09-12T07:28:04;1.13;;;1.13;;
51714;SDS011;39115;59.332;18.034;2023-09-12T07:30:24;1.48;;;1.38;;
51714;SDS011;39115;59.332;18.034;2023-09-12T07:32:45;1.42;;;1.33;;
51714;SDS011;39115;59.332;18.034;2023-09-12T07:35:06;1.50;;;1.40;;
51714;SDS011;39115;59.332;18.034;2023-09-12T07:37:27;1.20;;;1.10;;
51714;SDS011;39115;59.332;18.034;2023-09-12T07:39:47;1.10;;;1.00;;
51714;SDS011;39115;59.332;18.034;2023-09-12T07:42:07;1.10;;;1.10;;
51714;SDS011;39115;59.332;18.034;2023-09-12T07:44:28;1.13;;;1.02;;
51714;SDS011;39115;59.332;18.034;2023-09-12T07:46:49;1.27;;;1.17;;
51714;SDS011;39115;59.332;18.034;2023-09-12T07:49:10;1.05;;;0.95;;
51714;SDS011;39115;59.332;18.034;2023-09-12T07:51:30;1.10;;;1.10;;
51714;SDS011;39115;59.332;18.034;2023-09-12T07:53:51;1.10;;;1.10;;
51714;SDS011;39115;59.332;18.034;2023-09-12T07:56:11;1.20;;;1.10;;
51714;SDS011;39115;59.332;18.034;2023-09-12T07:58:32;1.25;;;1.15;;
51714;SDS011;39115;59.332;18.034;2023-09-12T08:00:52;1.20;;;1.10;;
51714;SDS011;39115;59.332;18.034;2023-09-12T08:03:13;1.20;;;1.10;;
51714;SDS011;39115;59.332;18.034;2023-09-12T08:05:35;1.30;;;1.20;;
51714;SDS011;39115;59.332;18.034;2023-09-12T08:07:56;0.85;;;0.80;;
51714;SDS011;39115;59.332;18.034;2023-09-12T08:10:16;0.98;;;0.98;;
51714;SDS011;39115;59.332;18.034;2023-09-12T08:12:37;1.20;;;1.10;;
51714;SDS011;39115;59.332;18.034;2023-09-12T08:15:01;0.90;;;0.90;;
51714;SDS011;39115;59.332;18.034;2023-09-12T08:17:22;1.17;;;1.08;;
51714;SDS011;39115;59.332;18.034;2023-09-12T08:19:43;1.10;;;1.00;;
51714;SDS011;39115;59.332;18.034;2023-09-12T08:22:04;1.27;;;1.17;;
51714;SDS011;39115;59.332;18.034;2023-09-12T08:24:25;0.90;;;0.90;;
51714;SDS011;39115;59.332;18.034;2023-09-12T08:26:46;0.73;;;0.73;;
51714;SDS011;39115;59.332;18.034;2023-09-12T08:29:06;1.20;;;1.10;;
51714;SDS011;39115;59.332;18.034;2023-09-12T08:31:27;1.10;;;1.00;;
51714;SDS011;39115;59.332;18.034;2023-09-12T08:33:48;0.93;;;0.93;;
51714;SDS011;39115;59.332;18.034;2023-09-12T08:36:08;1.20;;;1.10;;
51714;SDS011;39115;59.332;18.034;2023-09-12T08:38:29;0.80;;;0.80;;
51714;SDS011;39115;59.332;18.034;2023-09-12T08:40:50;1.00;;;0.90;;
51714;SDS011;39115;59.332;18.034;2023-09-12T08:43:11;1.10;;;1.00;;
51714;SDS011;39115;59.332;18.034;2023-09-12T08:45:32;1.25;;;1.15;;
51714;SDS011;39115;59.332;18.034;2023-09-12T08:47:53;0.98;;;0.93;;
51714;SDS011;39115;59.332;18.034;2023-09-12T08:50:15;1.00;;;0.90;;
51714;SDS011;39115;59.332;18.034;2023-09-12T08:52:36;1.33;;;1.23;;
51714;SDS011;39115;59.332;18.034;2023-09-12T08:54:57;0.80;;;0.80;;
51714;SDS011;39115;59.332;18.034;2023-09-12T08:57:18;1.15;;;1.05;;
51714;SDS011;39115;59.332;18.034;2023-09-12T08:59:39;1.30;;;1.20;;
51714;SDS011;39115;59.332;18.034;2023-09-12T09:02:04;1.20;;;1.10;;
51714;SDS011;39115;59.332;18.034;2023-09-12T09:04:29;0.80;;;0.80;;
51714;SDS011;39115;59.332;18.034;2023-09-12T09:06:51;1.20;;;1.10;;
51714;SDS011;39115;59.332;18.034;2023-09-12T09:09:11;0.73;;;0.73;;
51714;SDS011;39115;59.332;18.034;2023-09-12T09:11:33;1.02;;;0.98;;
51714;SDS011;39115;59.332;18.034;2023-09-12T09:13:54;1.00;;;0.88;;
51714;SDS011;39115;59.332;18.034;2023-09-12T09:16:16;1.35;;;1.25;;
51714;SDS011;39115;59.332;18.034;2023-09-12T09:21:20;1.20;;;1.10;;
51714;SDS011;39115;59.332;18.034;2023-09-12T09:23:47;1.10;;;1.00;;
51714;SDS011;39115;59.332;18.034;2023-09-12T09:26:07;1.13;;;1.02;;
51714;SDS011;39115;59.332;18.034;2023-09-12T09:28:28;0.90;;;0.90;;
51714;SDS011;39115;59.332;18.034;2023-09-12T09:30:49;1.15;;;1.05;;
51714;SDS011;39115;59.332;18.034;2023-09-12T09:33:12;1.10;;;1.00;;
51714;SDS011;39115;59.332;18.034;2023-09-12T09:35:33;1.33;;;1.23;;
51714;SDS011;39115;59.332;18.034;2023-09-12T09:37:54;1.10;;;1.00;;
51714;SDS011;39115;59.332;18.034;2023-09-12T09:40:14;1.20;;;1.10;;
51714;SDS011;39115;59.332;18.034;2023-09-12T09:42:35;1.27;;;1.17;;
51714;SDS011;39115;59.332;18.034;2023-09-12T09:44:57;1.13;;;1.08;;
51714;SDS011;39115;59.332;18.034;2023-09-12T09:47:17;1.23;;;1.13;;
51714;SDS011;39115;59.332;18.034;2023-09-12T09:49:39;1.20;;;1.10;;
51714;SDS011;39115;59.332;18.034;2023-09-12T09:52:02;0.80;;;0.80;;
51714;SDS011;39115;59.332;18.034;2023-09-12T09:54:24;1.00;;;0.88;;
51714;SDS011;39115;59.332;18.034;2023-09-12T09:56:46;0.90;;;0.90;;
51714;SDS011;39115;59.332;18.034;2023-09-12T09:59:08;1.00;;;1.00;;
51714;SDS011;39115;59.332;18.034;2023-09-12T10:01:35;0.77;;;0.77;;
51714;SDS011;39115;59.332;18.034;2023-09-12T10:03:57;1.27;;;1.17;;
51714;SDS011;39115;59.332;18.034;2023-09-12T10:06:22;1.20;;;1.10;;
51714;SDS011;39115;59.332;18.034;2023-09-12T10:08:45;1.05;;;1.00;;
51714;SDS011;39115;59.332;18.034;2023-09-12T10:11:07;1.30;;;1.20;;
51714;SDS011;39115;59.332;18.034;2023-09-12T10:13:28;0.82;;;0.82;;
51714;SDS011;39115;59.332;18.034;2023-09-12T10:15:52;0.82;;;0.82;;
51714;SDS011;39115;59.332;18.034;2023-09-12T10:18:17;1.15;;;1.10;;
51714;SDS011;39115;59.332;18.034;2023-09-12T10:20:45;0.90;;;0.90;;
51714;SDS011;39115;59.332;18.034;2023-09-12T10:23:20;0.80;;;0.80;;
51714;SDS011;39115;59.332;18.034;2023-09-12T10:25:47;1.00;;;0.80;;
51714;SDS011;39115;59.332;18.034;2023-09-12T10:28:10;0.90;;;0.80;;
51714;SDS011;39115;59.332;18.034;2023-09-12T10:30:35;0.90;;;0.90;;
51714;SDS011;39115;59.332;18.034;2023-09-12T10:32:57;0.80;;;0.80;;
51714;SDS011;39115;59.332;18.034;2023-09-12T10:35:18;1.10;;;1.00;;
51714;SDS011;39115;59.332;18.034;2023-09-12T10:37:38;0.85;;;0.85;;
51714;SDS011;39115;59.332;18.034;2023-09-12T10:40:02;1.08;;;0.98;;
51714;SDS011;39115;59.332;18.034;2023-09-12T10:42:28;1.00;;;1.00;;
51714;SDS011;39115;59.332;18.034;2023-09-12T10:44:49;1.08;;;0.98;;
51714;SDS011;39115;59.332;18.034;2023-09-12T10:47:11;0.90;;;0.90;;
51714;SDS011;39115;59.332;18.034;2023-09-12T10:49:34;0.80;;;0.80;;
51714;SDS011;39115;59.332;18.034;2023-09-12T10:51:54;0.80;;;0.80;;
51714;SDS011;39115;59.332;18.034;2023-09-12T10:54:22;0.80;;;0.80;;
51714;SDS011;39115;59.332;18.034;2023-09-12T10:57:05;0.90;;;0.90;;
51714;SDS011;39115;59.332;18.034;2023-09-12T10:59:27;1.20;;;1.10;;
51714;SDS011;39115;59.332;18.034;2023-09-12T11:01:51;1.20;;;1.10;;
51714;SDS011;39115;59.332;18.034;2023-09-12T11:06:38;1.08;;;1.00;;
51714;SDS011;39115;59.332;18.034;2023-09-12T11:11:35;1.13;;;1.10;;
51714;SDS011;39115;59.332;18.034;2023-09-12T11:14:02;0.88;;;0.88;;
51714;SDS011;39115;59.332;18.034;2023-09-12T11:16:24;1.02;;;0.95;;
51714;SDS011;39115;59.332;18.034;2023-09-12T11:19:31;1.20;;;1.10;;
51714;SDS011;39115;59.332;18.034;2023-09-12T11:21:39;1.02;;;1.00;;
51714;SDS011;39115;59.332;18.034;2023-09-12T11:24:00;1.20;;;1.10;;
51714;SDS011;39115;59.332;18.034;2023-09-12T11:26:21;0.98;;;0.98;;
51714;SDS011;39115;59.332;18.034;2023-09-12T11:28:41;0.90;;;0.90;;
51714;SDS011;39115;59.332;18.034;2023-09-12T11:31:04;1.10;;;1.00;;
51714;SDS011;39115;59.332;18.034;2023-09-12T11:33:26;0.90;;;0.90;;
51714;SDS011;39115;59.332;18.034;2023-09-12T11:35:46;0.85;;;0.85;;
51714;SDS011;39115;59.332;18.034;2023-09-12T11:38:14;1.00;;;1.00;;
51714;SDS011;39115;59.332;18.034;2023-09-12T11:40:47;1.13;;;1.02;;
51714;SDS011;39115;59.332;18.034;2023-09-12T11:43:08;1.50;;;1.40;;
51714;SDS011;39115;59.332;18.034;2023-09-12T11:45:42;1.02;;;0.93;;
51714;SDS011;39115;59.332;18.034;2023-09-12T11:48:04;1.10;;;1.00;;
51714;SDS011;39115;59.332;18.034;2023-09-12T11:50:32;0.95;;;0.95;;
51714;SDS011;39115;59.332;18.034;2023-09-12T11:53:02;1.00;;;0.90;;
51714;SDS011;39115;59.332;18.034;2023-09-12T11:55:24;1.10;;;1.10;;
51714;SDS011;39115;59.332;18.034;2023-09-12T11:57:45;1.67;;;1.08;;
51714;SDS011;39115;59.332;18.034;2023-09-12T12:00:06;0.93;;;0.93;;
51714;SDS011;39115;59.332;18.034;2023-09-12T12:02:39;1.33;;;1.23;;
51714;SDS011;39115;59.332;18.034;2023-09-12T12:05:03;1.25;;;1.17;;
51714;SDS011;39115;59.332;18.034;2023-09-12T12:07:24;0.82;;;0.82;;
51714;SDS011;39115;59.332;18.034;2023-09-12T12:09:45;1.02;;;0.98;;
51714;SDS011;39115;59.332;18.034;2023-09-12T12:12:12;1.02;;;0.93;;
51714;SDS011;39115;59.332;18.034;2023-09-12T12:14:33;0.80;;;0.80;;
51714;SDS011;39115;59.332;18.034;2023-09-12T12:16:55;1.05;;;1.05;;
51714;SDS011;39115;59.332;18.034;2023-09-12T12:19:16;1.05;;;1.05;;
51714;SDS011;39115;59.332;18.034;2023-09-12T12:21:40;1.20;;;1.10;;
51714;SDS011;39115;59.332;18.034;2023-09-12T12:24:02;1.20;;;1.10;;
51714;SDS011;39115;59.332;18.034;2023-09-12T12:26:24;0.95;;;0.95;;
51714;SDS011;39115;59.332;18.034;2023-09-12T12:28:45;0.80;;;0.80;;
51714;SDS011;39115;59.332;18.034;2023-09-12T12:31:06;0.85;;;0.85;;
51714;SDS011;39115;59.332;18.034;2023-09-12T12:33:27;1.10;;;1.00;;
51714;SDS011;39115;59.332;18.034;2023-09-12T12:35:48;0.90;;;0.90;;
51714;SDS011;39115;59.332;18.034;2023-09-12T12:38:11;1.00;;;0.90;;
51714;SDS011;39115;59.332;18.034;2023-09-12T12:40:36;1.10;;;1.00;;
51714;SDS011;39115;59.332;18.034;2023-09-12T12:42:58;1.00;;;1.00;;
51714;SDS011;39115;59.332;18.034;2023-09-12T12:45:22;1.08;;;1.08;;
51714;SDS011;39115;59.332;18.034;2023-09-12T12:47:46;1.00;;;0.90;;
51714;SDS011;39115;59.332;18.034;2023-09-12T12:50:07;1.50;;;0.80;;
51714;SDS011;39115;59.332;18.034;2023-09-12T12:52:34;1.00;;;1.00;;
51714;SDS011;39115;59.332;18.034;2023-09-12T12:55:03;1.20;;;1.10;;
51714;SDS011;39115;59.332;18.034;2023-09-12T12:57:25;1.20;;;1.10;;
51714;SDS011;39115;59.332;18.034;2023-09-12T12:59:46;1.05;;;0.98;;
51714;SDS011;39115;59.332;18.034;2023-09-12T13:02:11;1.00;;;1.00;;
51714;SDS011;39115;59.332;18.034;2023-09-12T13:04:37;0.95;;;0.85;;
51714;SDS011;39115;59.332;18.034;2023-09-12T13:06:58;1.00;;;1.00;;
51714;SDS011;39115;59.332;18.034;2023-09-12T13:09:18;1.20;;;1.20;;
51714;SDS011;39115;59.332;18.034;2023-09-12T13:11:39;0.90;;;0.90;;
51714;SDS011;39115;59.332;18.034;2023-09-12T13:14:00;0.95;;;0.95;;
51714;SDS011;39115;59.332;18.034;2023-09-12T13:16:21;1.05;;;0.93;;
51714;SDS011;39115;59.332;18.034;2023-09-12T13:18:42;0.90;;;0.90;;
51714;SDS011;39115;59.332;18.034;2023-09-12T13:21:03;1.10;;;1.00;;
51714;SDS011;39115;59.332;18.034;2023-09-12T13:23:24;1.38;;;1.27;;
51714;SDS011;39115;59.332;18.034;2023-09-12T13:25:44;0.88;;;0.88;;
51714;SDS011;39115;59.332;18.034;2023-09-12T13:28:05;1.30;;;1.00;;
51714;SDS011;39115;59.332;18.034;2023-09-12T13:30:25;1.48;;;1.38;;
51714;SDS011;39115;59.332;18.034;2023-09-12T13:32:46;1.20;;;1.10;;
51714;SDS011;39115;59.332;18.034;2023-09-12T13:35:07;1.42;;;1.33;;
51714;SDS011;39115;59.332;18.034;2023-09-12T13:37:28;1.00;;;1.00;;
51714;SDS011;39115;59.332;18.034;2023-09-12T13:39:50;1.10;;;1.02;;
51714;SDS011;39115;59.332;18.034;2023-09-12T13:42:11;1.40;;;1.30;;
51714;SDS011;39115;59.332;18.034;2023-09-12T13:44:31;1.30;;;1.23;;
51714;SDS011;39115;59.332;18.034;2023-09-12T13:46:52;1.20;;;1.10;;
51714;SDS011;39115;59.332;18.034;2023-09-12T13:49:13;1.25;;;1.15;;
51714;SDS011;39115;59.332;18.034;2023-09-12T13:51:34;1.40;;;1.30;;
51714;SDS011;39115;59.332;18.034;2023-09-12T13:53:56;1.08;;;1.00;;
51714;SDS011;39115;59.332;18.034;2023-09-12T13:56:16;1.17;;;1.08;;
51714;SDS011;39115;59.332;18.034;2023-09-12T13:58:37;0.90;;;0.90;;
51714;SDS011;39115;59.332;18.034;2023-09-12T14:00:57;1.30;;;1.20;;
51714;SDS011;39115;59.332;18.034;2023-09-12T14:03:18;1.00;;;0.90;;
51714;SDS011;39115;59.332;18.034;2023-09-12T14:05:38;1.33;;;1.23;;
51714;SDS011;39115;59.332;18.034;2023-09-12T14:07:59;1.33;;;1.23;;
51714;SDS011;39115;59.332;18.034;2023-09-12T14:10:19;1.48;;;1.38;;
51714;SDS011;39115;59.332;18.034;2023-09-12T14:12:40;1.23;;;1.20;;
51714;SDS011;39115;59.332;18.034;2023-09-12T14:15:01;1.33;;;1.23;;